Time;durP1;ratioP1;P1;durP2;ratioP2;P2;SDS_P1;SDS_P2;PMS_P1;PMS_P2;Temp;Humidity;BMP_temperature;BMP_pressure;BME280_temperature;BME280_humidity;BME280_pressure;Samples;Min_cycle;Max_cycle;Signal;HPM_P1;HPM_P2
2023/12/01 00:02:59;;;;;;;286.75;105.03;;;;;;;;;;6313698;28;20517;-55
2023/12/01 00:06:00;;;;;;;259.95;101.38;;;;;;;;;;6312671;28;20048;-56
2023/12/01 00:09:01;;;;;;;240.52;97.68;;;;;;;;;;6314432;28;20173;-56
2023/12/01 00:12:02;;;;;;;214.75;85.22;;;;;;;;;;6315149;28;20082;-55
2023/12/01 00:15:04;;;;;;;209.73;85.35;;;;;;;;;;6315512;28;20040;-57
2023/12/01 00:18:04;;;;;;;242.82;94.07;;;;;;;;;;6314094;28;20127;-58
2023/12/01 00:21:05;;;;;;;194.32;78.50;;;;;;;;;;6313264;28;20423;-56
2023/12/01 00:24:06;;;;;;;214.25;83.28;;;;;;;;;;6314741;28;20044;-55
2023/12/01 00:27:07;;;;;;;219.00;84.47;;;;;;;;;;6312253;28;20052;-58
2023/12/01 00:30:08;;;;;;;228.43;90.40;;;;;;;;;;6314375;28;20058;-55
2023/12/01 00:33:09;;;;;;;234.82;92.60;;;;;;;;;;6315051;28;20418;-57
2023/12/01 00:36:09;;;;;;;249.85;96.15;;;;;;;;;;6314319;28;20052;-54
2023/12/01 00:39:10;;;;;;;266.52;104.75;;;;;;;;;;6313866;28;20494;-55
2023/12/01 00:42:13;;;;;;;272.55;106.07;;;;;;;;;;6315040;28;20395;-60
2023/12/01 00:45:15;;;;;;;264.95;103.07;;;;;;;;;;6310906;28;20513;-55
2023/12/01 00:48:16;;;;;;;249.07;99.82;;;;;;;;;;6313232;28;20044;-55
2023/12/01 00:51:20;;;;;;;246.25;98.25;;;;;;;;;;6314071;28;20122;-55
2023/12/01 00:54:20;;;;;;;234.50;94.72;;;;;;;;;;6314329;28;20406;-55
2023/12/01 00:57:22;;;;;;;238.77;93.93;;;;;;;;;;6314609;28;20128;-55
2023/12/01 01:00:23;;;;;;;232.45;93.20;;;;;;;;;;6311387;28;20122;-52
2023/12/01 01:03:24;;;;;;;221.73;90.03;;;;;;;;;;6313948;28;20055;-57
2023/12/01 01:06:25;;;;;;;216.85;90.60;;;;;;;;;;6310934;28;20792;-56
2023/12/01 01:09:26;;;;;;;234.75;93.78;;;;;;;;;;6312869;28;20040;-54
2023/12/01 01:12:26;;;;;;;243.63;96.88;;;;;;;;;;6313095;28;20047;-57
2023/12/01 01:15:27;;;;;;;241.18;93.93;;;;;;;;;;6314805;28;20454;-54
2023/12/01 01:18:28;;;;;;;228.73;94.07;;;;;;;;;;6313566;28;20059;-56
2023/12/01 01:21:28;;;;;;;244.68;96.90;;;;;;;;;;6313761;28;20495;-57
2023/12/01 01:24:29;;;;;;;228.40;92.85;;;;;;;;;;6314738;28;20040;-55
2023/12/01 01:27:31;;;;;;;220.05;89.35;;;;;;;;;;6313192;28;20402;-56
2023/12/01 01:30:32;;;;;;;224.43;93.25;;;;;;;;;;6312458;28;20071;-54
2023/12/01 01:33:32;;;;;;;230.68;93.45;;;;;;;;;;6315233;28;20048;-54
2023/12/01 01:36:33;;;;;;;225.43;92.65;;;;;;;;;;6313752;28;20048;-56
2023/12/01 01:39:34;;;;;;;215.05;91.72;;;;;;;;;;6312062;28;20051;-54
2023/12/01 01:42:35;;;;;;;239.80;98.35;;;;;;;;;;6313679;28;20527;-52
2023/12/01 01:45:36;;;;;;;231.68;92.85;;;;;;;;;;6313055;28;20126;-55
2023/12/01 01:48:37;;;;;;;224.57;91.85;;;;;;;;;;6312854;28;20056;-51
2023/12/01 01:51:38;;;;;;;210.52;86.32;;;;;;;;;;6313613;28;20048;-52
2023/12/01 01:54:39;;;;;;;227.02;89.95;;;;;;;;;;6313284;28;20047;-52
2023/12/01 01:57:45;;;;;;;218.52;90.32;;;;;;;;;;6315700;28;20071;-51
2023/12/01 02:00:49;;;;;;;215.60;88.10;;;;;;;;;;6311977;28;20054;-54
2023/12/01 02:03:50;;;;;;;206.85;90.00;;;;;;;;;;6312147;28;20070;-50
2023/12/01 02:06:50;;;;;;;219.10;90.63;;;;;;;;;;6312980;28;20418;-55
2023/12/01 02:09:51;;;;;;;225.75;90.68;;;;;;;;;;6312210;28;20121;-55
2023/12/01 02:12:52;;;;;;;211.15;86.93;;;;;;;;;;6312620;28;20040;-59
2023/12/01 02:15:53;;;;;;;217.70;84.95;;;;;;;;;;6313766;28;20411;-52
2023/12/01 02:18:54;;;;;;;211.60;84.75;;;;;;;;;;6315317;28;20482;-53
2023/12/01 02:21:55;;;;;;;213.90;84.93;;;;;;;;;;6317775;28;20411;-55
2023/12/01 02:24:55;;;;;;;224.50;85.72;;;;;;;;;;6315605;28;20051;-56
2023/12/01 02:27:56;;;;;;;205.88;82.25;;;;;;;;;;6318003;28;20524;-62
2023/12/01 02:30:57;;;;;;;217.57;85.43;;;;;;;;;;6297693;28;20071;-59
2023/12/01 02:33:58;;;;;;;225.82;89.32;;;;;;;;;;6316270;28;20662;-56
2023/12/01 02:36:59;;;;;;;202.50;83.05;;;;;;;;;;6317541;28;20056;-53
2023/12/01 02:40:00;;;;;;;212.63;84.70;;;;;;;;;;6316999;28;20097;-57
2023/12/01 02:43:00;;;;;;;207.27;83.30;;;;;;;;;;6316746;28;20054;-58
2023/12/01 02:46:01;;;;;;;210.02;82.22;;;;;;;;;;6318189;28;20044;-55
2023/12/01 02:49:02;;;;;;;204.50;81.28;;;;;;;;;;6314839;28;20043;-50
2023/12/01 02:52:03;;;;;;;207.85;82.65;;;;;;;;;;6316349;28;20474;-53
2023/12/01 02:55:04;;;;;;;211.75;82.13;;;;;;;;;;6317946;28;20113;-56
2023/12/01 02:58:05;;;;;;;209.40;82.67;;;;;;;;;;6315261;28;20048;-56
2023/12/01 03:01:06;;;;;;;206.43;81.47;;;;;;;;;;6307824;28;20660;-56
2023/12/01 03:04:07;;;;;;;211.45;81.82;;;;;;;;;;6315748;28;20055;-52
2023/12/01 03:07:07;;;;;;;194.02;79.90;;;;;;;;;;6317129;28;20047;-55
2023/12/01 03:10:08;;;;;;;186.50;75.15;;;;;;;;;;6303124;28;20086;-52
2023/12/01 03:13:09;;;;;;;193.85;75.75;;;;;;;;;;6317176;28;20055;-55
2023/12/01 03:16:11;;;;;;;196.10;73.97;;;;;;;;;;6316225;28;20090;-51
2023/12/01 03:19:11;;;;;;;194.70;72.75;;;;;;;;;;6315875;28;20040;-55
2023/12/01 03:22:12;;;;;;;198.93;76.88;;;;;;;;;;6315385;28;20509;-51
2023/12/01 03:25:13;;;;;;;194.38;73.35;;;;;;;;;;6316371;28;20040;-53
2023/12/01 03:28:14;;;;;;;189.02;74.07;;;;;;;;;;6316115;28;20046;-52
2023/12/01 03:31:15;;;;;;;185.15;72.07;;;;;;;;;;6316752;28;20468;-54
2023/12/01 03:34:15;;;;;;;175.10;69.63;;;;;;;;;;6317169;28;20051;-54
2023/12/01 03:37:16;;;;;;;175.80;70.25;;;;;;;;;;6314342;28;20070;-51
2023/12/01 03:40:17;;;;;;;177.20;70.53;;;;;;;;;;6313779;28;20407;-52
2023/12/01 03:43:17;;;;;;;178.52;68.40;;;;;;;;;;6316451;28;20044;-52
2023/12/01 03:46:18;;;;;;;172.40;69.10;;;;;;;;;;6315742;28;20106;-55
2023/12/01 03:49:19;;;;;;;201.23;73.68;;;;;;;;;;6315373;28;20040;-52
2023/12/01 03:52:20;;;;;;;177.23;66.40;;;;;;;;;;6314642;28;20064;-52
2023/12/01 03:55:21;;;;;;;169.65;64.10;;;;;;;;;;6314621;28;20047;-54
2023/12/01 03:58:24;;;;;;;159.55;63.35;;;;;;;;;;6315473;28;20037;-53
2023/12/01 04:01:26;;;;;;;154.07;59.38;;;;;;;;;;6310826;28;20048;-58
2023/12/01 04:04:27;;;;;;;159.32;62.00;;;;;;;;;;6315408;28;20070;-50
2023/12/01 04:07:27;;;;;;;170.88;67.88;;;;;;;;;;6315507;28;20043;-57
2023/12/01 04:10:28;;;;;;;170.75;63.88;;;;;;;;;;6314606;28;20044;-60
2023/12/01 04:13:29;;;;;;;166.32;67.07;;;;;;;;;;6313062;28;20048;-54
2023/12/01 04:16:30;;;;;;;172.00;67.65;;;;;;;;;;6313031;28;20047;-57
2023/12/01 04:19:30;;;;;;;167.82;65.03;;;;;;;;;;6311891;28;20047;-52
2023/12/01 04:22:31;;;;;;;162.65;63.22;;;;;;;;;;6314454;28;20051;-53
2023/12/01 04:25:32;;;;;;;167.38;63.92;;;;;;;;;;6313510;28;20044;-51
2023/12/01 04:28:32;;;;;;;171.98;62.25;;;;;;;;;;6313195;28;20047;-51
2023/12/01 04:31:34;;;;;;;170.18;65.03;;;;;;;;;;6301980;28;20044;-54
2023/12/01 04:34:34;;;;;;;168.20;66.10;;;;;;;;;;6313628;28;20398;-57
2023/12/01 04:37:35;;;;;;;168.02;61.38;;;;;;;;;;6314414;28;20046;-52
2023/12/01 04:40:39;;;;;;;180.65;65.07;;;;;;;;;;6313365;28;20048;-51
2023/12/01 04:43:40;;;;;;;172.85;64.70;;;;;;;;;;6314043;28;20048;-53
2023/12/01 04:46:41;;;;;;;172.40;64.28;;;;;;;;;;6315389;28;20454;-51
2023/12/01 04:49:41;;;;;;;174.02;67.13;;;;;;;;;;6313867;28;20048;-52
2023/12/01 04:52:44;;;;;;;165.48;63.15;;;;;;;;;;6313853;28;20067;-55
2023/12/01 04:55:46;;;;;;;167.07;63.45;;;;;;;;;;6315270;28;20079;-59
2023/12/01 04:58:47;;;;;;;154.68;61.55;;;;;;;;;;6312487;28;20040;-62
2023/12/01 05:01:48;;;;;;;169.75;63.80;;;;;;;;;;6312729;28;20380;-50
2023/12/01 05:04:48;;;;;;;196.63;74.20;;;;;;;;;;6314003;28;20407;-53
2023/12/01 05:07:51;;;;;;;164.57;64.57;;;;;;;;;;6314029;28;20441;-52
2023/12/01 05:10:54;;;;;;;168.30;65.15;;;;;;;;;;6312705;28;20044;-57
2023/12/01 05:13:55;;;;;;;;;;;;;;;;;;6313925;28;20040;-52
2023/12/01 05:16:55;;;;;;;171.00;64.50;;;;;;;;;;6298229;28;19927;-54
2023/12/01 05:19:56;;;;;;;181.02;71.10;;;;;;;;;;6312793;28;20127;-51
2023/12/01 05:22:58;;;;;;;170.65;62.80;;;;;;;;;;6313587;28;20419;-54
2023/12/01 05:25:59;;;;;;;168.65;66.65;;;;;;;;;;6313036;28;20380;-54
2023/12/01 05:28:59;;;;;;;171.65;64.82;;;;;;;;;;6311865;28;20040;-55
2023/12/01 05:32:00;;;;;;;173.32;63.85;;;;;;;;;;6311529;28;20044;-54
2023/12/01 05:35:02;;;;;;;170.27;63.42;;;;;;;;;;6309897;28;21329;-54
2023/12/01 05:38:06;;;;;;;155.25;59.38;;;;;;;;;;6311565;28;20040;-54
2023/12/01 05:41:09;;;;;;;168.90;62.53;;;;;;;;;;6311903;28;20449;-53
2023/12/01 05:44:09;;;;;;;156.48;64.20;;;;;;;;;;6305272;28;20055;-52
2023/12/01 05:47:10;;;;;;;165.68;63.20;;;;;;;;;;6315463;28;20044;-53
2023/12/01 05:50:14;;;;;;;163.38;63.05;;;;;;;;;;6310639;28;20071;-57
2023/12/01 05:53:15;;;;;;;156.88;60.33;;;;;;;;;;6312923;28;20631;-58
2023/12/01 05:56:16;;;;;;;163.32;64.40;;;;;;;;;;6315547;28;20040;-55
2023/12/01 05:59:17;;;;;;;166.55;64.22;;;;;;;;;;6309038;28;20041;-55
2023/12/01 06:02:17;;;;;;;171.48;69.38;;;;;;;;;;6310413;28;20044;-59
2023/12/01 06:05:20;;;;;;;208.13;79.28;;;;;;;;;;6311560;28;20794;-60
2023/12/01 06:08:21;;;;;;;206.35;83.68;;;;;;;;;;6313399;28;20044;-60
2023/12/01 06:11:22;;;;;;;234.52;90.40;;;;;;;;;;6313549;28;20051;-60
2023/12/01 06:14:22;;;;;;;237.18;94.63;;;;;;;;;;6316634;28;20056;-58
2023/12/01 06:17:23;;;;;;;231.65;90.38;;;;;;;;;;6313131;28;20534;-59
2023/12/01 06:20:24;;;;;;;225.73;89.70;;;;;;;;;;6314079;28;20133;-57
2023/12/01 06:23:25;;;;;;;220.68;87.47;;;;;;;;;;6318484;28;20048;-58
2023/12/01 06:26:25;;;;;;;211.45;85.75;;;;;;;;;;6313914;28;20196;-56
2023/12/01 06:29:26;;;;;;;257.17;100.75;;;;;;;;;;6309831;28;20059;-60
2023/12/01 06:32:27;;;;;;;232.75;95.22;;;;;;;;;;6310740;28;20047;-58
2023/12/01 06:35:28;;;;;;;238.23;92.10;;;;;;;;;;6315142;28;20047;-58
2023/12/01 06:38:29;;;;;;;217.65;87.70;;;;;;;;;;6302105;28;20078;-54
2023/12/01 06:41:30;;;;;;;235.47;92.60;;;;;;;;;;6315179;28;20418;-54
2023/12/01 06:44:34;;;;;;;225.50;90.47;;;;;;;;;;6317839;28;20040;-53
2023/12/01 06:47:35;;;;;;;223.02;88.25;;;;;;;;;;6318071;28;20044;-54
2023/12/01 06:50:36;;;;;;;228.90;91.20;;;;;;;;;;6314835;28;20082;-62
2023/12/01 06:53:36;;;;;;;244.45;92.00;;;;;;;;;;6316095;28;20080;-54
2023/12/01 06:56:37;;;;;;;257.20;102.25;;;;;;;;;;6309745;28;20044;-52
2023/12/01 06:59:38;;;;;;;221.73;89.22;;;;;;;;;;6313217;28;20051;-55
2023/12/01 07:02:38;;;;;;;223.13;88.32;;;;;;;;;;6311556;28;20445;-57
2023/12/01 07:05:40;;;;;;;221.80;88.95;;;;;;;;;;6309431;28;20156;-53
2023/12/01 07:08:41;;;;;;;220.53;88.50;;;;;;;;;;6313152;28;20135;-55
2023/12/01 07:11:42;;;;;;;192.77;78.55;;;;;;;;;;6314272;28;20055;-52
2023/12/01 07:14:42;;;;;;;206.65;81.95;;;;;;;;;;6315589;28;20060;-53
2023/12/01 07:17:43;;;;;;;216.70;86.53;;;;;;;;;;6314476;28;20059;-52
2023/12/01 07:20:44;;;;;;;219.73;89.82;;;;;;;;;;6314644;28;20166;-53
2023/12/01 07:23:46;;;;;;;248.68;96.43;;;;;;;;;;6314675;28;20048;-53
2023/12/01 07:26:51;;;;;;;238.10;94.15;;;;;;;;;;6312799;28;20135;-52
2023/12/01 07:29:52;;;;;;;221.15;90.38;;;;;;;;;;6311643;28;20628;-52
2023/12/01 07:32:53;;;;;;;253.70;97.80;;;;;;;;;;6311774;28;20048;-53
2023/12/01 07:35:57;;;;;;;245.82;96.25;;;;;;;;;;6311928;28;20062;-53
2023/12/01 07:38:57;;;;;;;247.63;96.47;;;;;;;;;;6313859;28;20066;-53
2023/12/01 07:41:58;;;;;;;288.45;107.20;;;;;;;;;;6317150;28;20067;-54
2023/12/01 07:44:59;;;;;;;309.02;114.47;;;;;;;;;;6314300;28;20044;-55
2023/12/01 07:48:00;;;;;;;360.92;128.15;;;;;;;;;;6315970;28;20394;-55
2023/12/01 07:51:02;;;;;;;308.08;116.18;;;;;;;;;;6313207;28;20048;-52
2023/12/01 07:54:04;;;;;;;327.58;123.20;;;;;;;;;;6314832;28;20055;-52
2023/12/01 07:57:04;;;;;;;302.52;117.00;;;;;;;;;;6316530;28;20178;-55
2023/12/01 08:00:14;;;;;;;285.48;111.75;;;;;;;;;;6315183;28;20135;-51
2023/12/01 08:03:14;;;;;;;319.92;121.32;;;;;;;;;;6313354;28;20056;-52
2023/12/01 08:06:16;;;;;;;253.82;102.28;;;;;;;;;;6315403;28;20135;-53
2023/12/01 08:09:16;;;;;;;219.75;88.57;;;;;;;;;;6313115;28;20551;-53
2023/12/01 08:12:19;;;;;;;201.82;82.72;;;;;;;;;;6312753;28;20079;-53
2023/12/01 08:15:19;;;;;;;191.75;83.07;;;;;;;;;;6314910;28;20475;-52
2023/12/01 08:18:21;;;;;;;202.90;81.07;;;;;;;;;;6313605;28;20044;-51
2023/12/01 08:21:22;;;;;;;218.18;86.60;;;;;;;;;;6313532;28;20055;-54
2023/12/01 08:24:23;;;;;;;188.73;80.75;;;;;;;;;;6313269;28;20063;-53
2023/12/01 08:27:24;;;;;;;182.45;77.05;;;;;;;;;;6315723;28;20684;-52
2023/12/01 08:30:25;;;;;;;182.10;75.55;;;;;;;;;;6314291;28;20044;-52
2023/12/01 08:33:26;;;;;;;184.98;76.85;;;;;;;;;;6314351;28;20090;-54
2023/12/01 08:36:26;;;;;;;186.65;78.45;;;;;;;;;;6315075;28;20059;-54
2023/12/01 08:39:28;;;;;;;171.68;71.78;;;;;;;;;;6315264;28;20453;-55
2023/12/01 08:42:28;;;;;;;155.23;67.60;;;;;;;;;;6312562;28;20479;-53
2023/12/01 08:45:29;;;;;;;159.30;66.55;;;;;;;;;;6313305;28;20040;-56
2023/12/01 08:48:30;;;;;;;162.55;69.05;;;;;;;;;;6314228;28;20054;-55
2023/12/01 08:51:30;;;;;;;191.88;77.10;;;;;;;;;;6311955;28;20071;-53
2023/12/01 08:54:31;;;;;;;205.65;82.75;;;;;;;;;;6296058;28;20055;-53
2023/12/01 08:57:32;;;;;;;200.43;83.07;;;;;;;;;;6316564;28;20048;-52
2023/12/01 09:00:34;;;;;;;204.90;89.93;;;;;;;;;;6315073;28;20054;-52
2023/12/01 09:03:35;;;;;;;202.45;85.60;;;;;;;;;;6311875;28;20060;-54
2023/12/01 09:06:39;;;;;;;207.68;87.13;;;;;;;;;;6315002;28;20133;-55
2023/12/01 09:09:39;;;;;;;213.02;89.18;;;;;;;;;;6314017;28;20484;-56
2023/12/01 09:12:40;;;;;;;178.93;77.55;;;;;;;;;;6313449;28;20084;-52
2023/12/01 09:15:41;;;;;;;174.98;70.53;;;;;;;;;;6312932;28;20495;-55
2023/12/01 09:18:43;;;;;;;136.55;57.47;;;;;;;;;;6313307;28;20052;-54
2023/12/01 09:21:43;;;;;;;118.63;50.22;;;;;;;;;;6312890;28;20039;-53
2023/12/01 09:24:45;;;;;;;121.07;52.03;;;;;;;;;;6314278;28;20097;-55
2023/12/01 09:27:47;;;;;;;113.53;48.90;;;;;;;;;;6317210;28;20036;-53
2023/12/01 09:30:48;;;;;;;112.22;46.13;;;;;;;;;;6318796;28;20048;-57
2023/12/01 09:33:48;;;;;;;113.88;47.15;;;;;;;;;;6318690;28;20506;-57
2023/12/01 09:36:50;;;;;;;105.25;42.55;;;;;;;;;;6319609;28;20150;-56
2023/12/01 09:39:51;;;;;;;96.18;41.10;;;;;;;;;;6298712;28;20044;-55
2023/12/01 09:42:53;;;;;;;89.25;39.17;;;;;;;;;;6316114;28;20542;-57
2023/12/01 09:45:54;;;;;;;97.88;40.00;;;;;;;;;;6319406;28;20048;-56
2023/12/01 09:48:55;;;;;;;92.38;38.33;;;;;;;;;;6319548;28;20726;-56
2023/12/01 09:51:56;;;;;;;84.78;35.88;;;;;;;;;;6316538;28;20058;-58
2023/12/01 09:54:57;;;;;;;86.60;37.75;;;;;;;;;;6320758;28;20044;-57
2023/12/01 09:57:58;;;;;;;94.57;39.83;;;;;;;;;;6317485;28;20044;-55
2023/12/01 10:00:59;;;;;;;95.93;40.97;;;;;;;;;;6316257;28;20131;-57
2023/12/01 10:04:00;;;;;;;98.15;42.53;;;;;;;;;;6316841;28;20044;-55
2023/12/01 10:07:03;;;;;;;95.50;41.08;;;;;;;;;;6317651;28;20071;-51
2023/12/01 10:10:24;;;;;;;104.80;42.60;;;;;;;;;;6318064;28;20479;-57
2023/12/01 10:13:39;;;;;;;98.00;40.50;;;;;;;;;;6316184;28;20048;-57
2023/12/01 10:16:39;;;;;;;91.38;40.88;;;;;;;;;;6315720;28;20130;-56
2023/12/01 10:19:47;;;;;;;102.72;43.00;;;;;;;;;;6319324;28;20090;-57
2023/12/01 10:22:49;;;;;;;100.07;43.00;;;;;;;;;;6314851;28;20048;-57
2023/12/01 10:25:51;;;;;;;77.55;34.03;;;;;;;;;;6315977;28;20137;-52
2023/12/01 10:28:52;;;;;;;79.95;32.10;;;;;;;;;;6318387;28;20044;-56
2023/12/01 10:31:57;;;;;;;78.90;33.25;;;;;;;;;;6303705;28;20048;-56
2023/12/01 10:35:02;;;;;;;77.97;34.63;;;;;;;;;;6317179;28;20048;-52
2023/12/01 10:38:02;;;;;;;91.53;35.55;;;;;;;;;;6316272;28;20052;-56
2023/12/01 10:41:06;;;;;;;83.28;34.15;;;;;;;;;;6313860;28;20402;-55
2023/12/01 10:44:08;;;;;;;87.00;36.05;;;;;;;;;;6316237;28;20055;-57
2023/12/01 10:47:10;;;;;;;83.88;36.55;;;;;;;;;;6317379;28;20044;-55
2023/12/01 10:50:12;;;;;;;81.47;35.22;;;;;;;;;;6316715;28;20040;-57
2023/12/01 10:53:18;;;;;;;74.13;32.67;;;;;;;;;;6316403;28;20162;-52
2023/12/01 10:56:23;;;;;;;82.88;35.13;;;;;;;;;;6316840;28;20044;-56
2023/12/01 10:59:28;;;;;;;76.85;34.78;;;;;;;;;;6316385;28;20052;-52
2023/12/01 11:02:30;;;;;;;86.22;33.97;;;;;;;;;;6317059;28;20442;-55
2023/12/01 11:05:33;;;;;;;80.13;33.97;;;;;;;;;;6314641;28;20048;-55
2023/12/01 11:08:49;;;;;;;75.28;33.35;;;;;;;;;;6314536;28;20052;-56
2023/12/01 11:12:02;;;;;;;80.30;34.28;;;;;;;;;;6317144;28;20380;-54
2023/12/01 11:15:31;;;;;;;76.93;32.88;;;;;;;;;;6314855;28;20040;-56
2023/12/01 11:18:31;;;;;;;72.00;30.02;;;;;;;;;;6309850;28;20093;-54
2023/12/01 11:21:32;;;;;;;73.38;30.75;;;;;;;;;;6315591;28;20538;-56
2023/12/01 11:24:33;;;;;;;87.40;35.60;;;;;;;;;;6316511;28;20055;-53
2023/12/01 11:27:34;;;;;;;84.25;33.10;;;;;;;;;;6317313;28;20383;-55
2023/12/01 11:31:07;;;;;;;74.32;32.47;;;;;;;;;;6315907;28;20501;-54
2023/12/01 11:34:12;;;;;;;93.55;38.42;;;;;;;;;;6315260;28;20056;-56
2023/12/01 11:37:13;;;;;;;96.55;38.47;;;;;;;;;;6316401;28;20071;-56
2023/12/01 11:40:22;;;;;;;77.50;32.20;;;;;;;;;;6315479;28;20059;-55
2023/12/01 11:43:22;;;;;;;78.18;33.88;;;;;;;;;;6315210;28;20561;-55
2023/12/01 11:46:23;;;;;;;88.68;36.88;;;;;;;;;;6314604;28;20071;-55
2023/12/01 11:49:30;;;;;;;81.57;35.22;;;;;;;;;;6308304;28;20482;-52
2023/12/01 11:52:32;;;;;;;84.18;33.83;;;;;;;;;;6314993;28;20240;-56
2023/12/01 11:55:33;;;;;;;;;;;;;;;;;;6316792;28;20063;-54
2023/12/01 11:58:33;;;;;;;81.90;32.97;;;;;;;;;;6316524;28;19977;-51
2023/12/01 12:01:34;;;;;;;76.65;32.72;;;;;;;;;;6315092;28;20067;-56
2023/12/01 12:04:39;;;;;;;82.30;33.53;;;;;;;;;;6315647;28;20054;-55
2023/12/01 12:07:43;;;;;;;87.55;35.65;;;;;;;;;;6315811;28;20500;-55
2023/12/01 12:10:44;;;;;;;82.55;33.75;;;;;;;;;;6315105;28;20411;-55
2023/12/01 12:13:53;;;;;;;78.38;33.72;;;;;;;;;;6314096;28;20047;-54
2023/12/01 12:16:55;;;;;;;69.85;29.55;;;;;;;;;;6313094;28;20044;-52
2023/12/01 12:19:55;;;;;;;69.75;27.52;;;;;;;;;;6313520;28;20046;-55
2023/12/01 12:22:56;;;;;;;65.75;26.05;;;;;;;;;;6314047;28;20048;-55
2023/12/01 12:26:13;;;;;;;63.08;26.02;;;;;;;;;;6312781;28;20051;-56
2023/12/01 12:29:13;;;;;;;69.78;28.27;;;;;;;;;;6312687;28;20150;-55
2023/12/01 12:32:14;;;;;;;77.20;31.40;;;;;;;;;;6313137;28;20044;-55
2023/12/01 12:35:15;;;;;;;71.30;28.98;;;;;;;;;;6314259;28;20472;-55
2023/12/01 12:38:15;;;;;;;59.47;24.40;;;;;;;;;;6315791;28;20050;-56
2023/12/01 12:41:26;;;;;;;61.10;25.05;;;;;;;;;;6313203;28;20089;-53
2023/12/01 12:44:31;;;;;;;59.00;24.05;;;;;;;;;;6312964;28;20040;-56
2023/12/01 12:47:32;;;;;;;61.28;24.77;;;;;;;;;;6315377;28;20040;-53
2023/12/01 12:50:39;;;;;;;60.63;24.38;;;;;;;;;;6315128;28;20068;-55
2023/12/01 12:53:40;;;;;;;60.90;24.63;;;;;;;;;;6312307;28;20064;-55
2023/12/01 12:56:42;;;;;;;62.10;25.73;;;;;;;;;;6313670;28;20051;-55
2023/12/01 12:59:43;;;;;;;65.80;27.35;;;;;;;;;;6313739;28;20059;-58
2023/12/01 13:02:44;;;;;;;63.73;25.07;;;;;;;;;;6312093;28;20411;-53
2023/12/01 13:05:44;;;;;;;70.20;26.08;;;;;;;;;;6314363;28;20040;-57
2023/12/01 13:08:46;;;;;;;59.33;24.83;;;;;;;;;;6312726;28;20048;-53
2023/12/01 13:11:46;;;;;;;68.13;27.55;;;;;;;;;;6314183;28;20085;-56
2023/12/01 13:14:47;;;;;;;69.45;27.98;;;;;;;;;;6314230;28;20441;-56
2023/12/01 13:17:48;;;;;;;59.95;24.73;;;;;;;;;;6315685;28;20074;-54
2023/12/01 13:20:49;;;;;;;60.55;25.23;;;;;;;;;;6313285;28;20448;-53
2023/12/01 13:23:49;;;;;;;67.05;24.77;;;;;;;;;;6312777;28;20052;-54
2023/12/01 13:26:50;;;;;;;55.60;22.15;;;;;;;;;;6311701;28;20410;-59
2023/12/01 13:29:51;;;;;;;51.50;22.23;;;;;;;;;;6314446;28;20113;-56
2023/12/01 13:32:51;;;;;;;51.83;21.00;;;;;;;;;;6312166;28;20538;-55
2023/12/01 13:35:52;;;;;;;49.90;20.98;;;;;;;;;;6310925;28;20509;-53
2023/12/01 13:38:53;;;;;;;59.70;23.77;;;;;;;;;;6312403;28;20063;-56
2023/12/01 13:41:54;;;;;;;52.28;22.08;;;;;;;;;;6313227;28;20051;-56
2023/12/01 13:44:56;;;;;;;55.80;21.25;;;;;;;;;;6312780;28;20040;-51
2023/12/01 13:47:56;;;;;;;57.38;23.73;;;;;;;;;;6315029;28;20048;-56
2023/12/01 13:50:57;;;;;;;49.50;21.48;;;;;;;;;;6289892;28;20101;-52
2023/12/01 13:53:58;;;;;;;48.22;21.17;;;;;;;;;;6296492;28;20063;-54
2023/12/01 13:56:59;;;;;;;50.00;21.10;;;;;;;;;;6299051;28;20139;-53
2023/12/01 13:59:59;;;;;;;54.17;20.70;;;;;;;;;;6301336;28;20100;-54
2023/12/01 14:03:00;;;;;;;46.63;19.55;;;;;;;;;;6297686;28;20052;-57
2023/12/01 14:06:02;;;;;;;50.00;21.75;;;;;;;;;;6301218;28;20093;-56
2023/12/01 14:09:04;;;;;;;50.65;21.27;;;;;;;;;;6303604;28;20044;-52
2023/12/01 14:12:05;;;;;;;48.37;20.73;;;;;;;;;;6302798;28;20048;-54
2023/12/01 14:15:07;;;;;;;45.00;19.23;;;;;;;;;;6302550;28;20545;-52
2023/12/01 14:18:07;;;;;;;49.90;21.90;;;;;;;;;;6307236;28;20083;-52
2023/12/01 14:21:08;;;;;;;49.58;22.05;;;;;;;;;;6289548;28;20054;-56
2023/12/01 14:24:09;;;;;;;56.78;23.45;;;;;;;;;;6303671;28;20048;-54
2023/12/01 14:27:10;;;;;;;52.97;23.90;;;;;;;;;;6306722;28;20055;-53
2023/12/01 14:30:11;;;;;;;55.05;24.55;;;;;;;;;;6309292;28;20047;-53
2023/12/01 14:33:12;;;;;;;56.38;24.90;;;;;;;;;;6303941;28;20052;-58
2023/12/01 14:36:12;;;;;;;56.72;24.25;;;;;;;;;;6306575;28;20479;-56
2023/12/01 14:39:13;;;;;;;59.90;25.77;;;;;;;;;;6307220;28;20335;-53
2023/12/01 14:42:14;;;;;;;59.65;26.00;;;;;;;;;;6306283;28;20664;-55
2023/12/01 14:45:15;;;;;;;55.85;24.73;;;;;;;;;;6304518;28;20155;-56
2023/12/01 14:48:16;;;;;;;63.85;27.45;;;;;;;;;;6306877;28;20051;-53
2023/12/01 14:51:17;;;;;;;74.20;30.70;;;;;;;;;;6308356;28;20084;-56
2023/12/01 14:54:18;;;;;;;68.50;30.30;;;;;;;;;;6302689;28;20640;-55
2023/12/01 14:57:19;;;;;;;67.70;29.40;;;;;;;;;;6305711;28;20106;-56
2023/12/01 15:00:21;;;;;;;68.57;28.90;;;;;;;;;;6304639;28;20103;-55
2023/12/01 15:03:21;;;;;;;70.07;29.48;;;;;;;;;;6302803;28;20048;-53
2023/12/01 15:06:22;;;;;;;67.35;29.23;;;;;;;;;;6304131;28;20105;-56
2023/12/01 15:09:23;;;;;;;68.43;25.98;;;;;;;;;;6305679;28;20528;-54
2023/12/01 15:12:24;;;;;;;59.78;24.48;;;;;;;;;;6304603;28;20602;-55
2023/12/01 15:15:25;;;;;;;62.35;24.90;;;;;;;;;;6304060;28;20071;-56
2023/12/01 15:18:27;;;;;;;62.95;27.65;;;;;;;;;;6305443;28;20581;-56
2023/12/01 15:21:28;;;;;;;61.35;25.98;;;;;;;;;;6303824;28;20060;-55
2023/12/01 15:24:29;;;;;;;62.95;24.98;;;;;;;;;;6304311;28;20101;-57
2023/12/01 15:27:30;;;;;;;62.17;25.88;;;;;;;;;;6305502;28;20900;-57
2023/12/01 15:30:30;;;;;;;65.22;27.10;;;;;;;;;;6304769;28;20052;-53
2023/12/01 15:33:32;;;;;;;63.08;26.30;;;;;;;;;;6301728;28;20040;-57
2023/12/01 15:36:32;;;;;;;64.05;26.08;;;;;;;;;;6300523;28;20055;-55
2023/12/01 15:39:33;;;;;;;57.45;24.38;;;;;;;;;;6301680;28;20071;-55
2023/12/01 15:42:33;;;;;;;59.70;24.35;;;;;;;;;;6302163;28;20048;-59
2023/12/01 15:45:35;;;;;;;56.15;24.52;;;;;;;;;;6284978;28;20054;-55
2023/12/01 15:48:36;;;;;;;59.65;25.15;;;;;;;;;;6305254;28;20048;-59
2023/12/01 15:51:39;;;;;;;59.90;24.73;;;;;;;;;;6306723;28;20064;-59
2023/12/01 15:54:39;;;;;;;53.35;23.42;;;;;;;;;;6303315;28;20055;-61
2023/12/01 15:57:40;;;;;;;54.13;22.77;;;;;;;;;;6303883;28;20131;-56
2023/12/01 16:00:42;;;;;;;57.75;25.02;;;;;;;;;;6306463;28;20098;-56
2023/12/01 16:03:43;;;;;;;72.32;25.05;;;;;;;;;;6304099;28;20056;-60
2023/12/01 16:06:43;;;;;;;55.85;24.15;;;;;;;;;;6303387;28;20047;-60
2023/12/01 16:09:44;;;;;;;57.00;23.77;;;;;;;;;;6306795;28;20215;-57
2023/12/01 16:12:45;;;;;;;60.90;25.42;;;;;;;;;;6304616;28;20589;-59
2023/12/01 16:15:46;;;;;;;56.05;23.88;;;;;;;;;;6305078;28;20048;-61
2023/12/01 16:18:46;;;;;;;64.05;27.63;;;;;;;;;;6306083;28;20053;-61
2023/12/01 16:21:47;;;;;;;56.63;24.52;;;;;;;;;;6306686;28;20032;-63
2023/12/01 16:24:48;;;;;;;51.88;23.10;;;;;;;;;;6301437;28;20079;-60
2023/12/01 16:27:49;;;;;;;59.15;24.52;;;;;;;;;;6288474;28;20059;-61
2023/12/01 16:30:50;;;;;;;56.53;24.00;;;;;;;;;;6306592;28;20048;-61
2023/12/01 16:33:51;;;;;;;58.00;25.30;;;;;;;;;;6303058;28;20086;-59
2023/12/01 16:36:51;;;;;;;61.05;25.35;;;;;;;;;;6304021;28;20059;-60
2023/12/01 16:39:52;;;;;;;60.83;26.02;;;;;;;;;;6305488;28;20135;-60
2023/12/01 16:42:53;;;;;;;59.20;26.80;;;;;;;;;;6299860;28;20048;-60
2023/12/01 16:45:53;;;;;;;65.72;27.27;;;;;;;;;;6300617;28;20101;-60
2023/12/01 16:48:54;;;;;;;69.47;27.45;;;;;;;;;;6303713;28;20434;-57
2023/12/01 16:51:55;;;;;;;70.10;27.85;;;;;;;;;;6301768;28;20475;-57
2023/12/01 16:54:57;;;;;;;68.07;27.75;;;;;;;;;;6300453;28;20044;-56
2023/12/01 16:57:58;;;;;;;66.35;28.05;;;;;;;;;;6284857;28;20055;-58
2023/12/01 17:00:58;;;;;;;69.63;28.48;;;;;;;;;;6284967;28;21245;-59
2023/12/01 17:03:59;;;;;;;72.47;28.73;;;;;;;;;;6298284;28;20056;-58
2023/12/01 17:07:00;;;;;;;72.57;28.60;;;;;;;;;;6299804;28;20704;-60
2023/12/01 17:10:01;;;;;;;69.03;28.48;;;;;;;;;;6303361;28;20051;-59
2023/12/01 17:13:01;;;;;;;70.38;29.42;;;;;;;;;;6299985;28;20549;-58
2023/12/01 17:16:04;;;;;;;69.40;29.55;;;;;;;;;;6301847;28;20123;-60
2023/12/01 17:19:04;;;;;;;63.95;28.23;;;;;;;;;;6283012;28;20081;-60
2023/12/01 17:22:05;;;;;;;68.40;28.38;;;;;;;;;;6301606;28;20558;-60
2023/12/01 17:25:07;;;;;;;75.35;31.50;;;;;;;;;;6299101;28;20063;-60
2023/12/01 17:28:08;;;;;;;77.30;29.75;;;;;;;;;;6302532;28;20089;-60
2023/12/01 17:31:09;;;;;;;71.97;29.45;;;;;;;;;;6301862;28;20052;-59